This is the latest recevied weather packets stored in our database for station/object SLG. If no packets are shown the sender has not sent any weather packets the latest 10 day(s).
| Time | Temp. | Humidity | Pressure | Rain* | Wind** | Luminosity | Snow |
|---|---|---|---|---|---|---|---|
| 1777847530 | 13.89° C | 60% | 1012.7 hPa | 0 mm | - | - | - |
| 1777842131 | 15.56° C | 50% | 1012 hPa | 0 mm | - | - | - |
| 1777840329 | 16.11° C | 48% | 1011.9 hPa | 0 mm | - | - | - |
| 1777836730 | 17.78° C | 43% | 1011.2 hPa | 0 mm | - | - | - |
| 1777833130 | 19.44° C | 38% | 1010.4 hPa | 0 mm | - | - | - |
| 1777829530 | 22.22° C | 41% | 1009.4 hPa | 0 mm | - | - | - |
| 1777825931 | 23.33° C | 35% | 1009.4 hPa | 0 mm | - | - | - |
| 1777824131 | 23.89° C | 30% | 1009.1 hPa | 0 mm | - | - | - |
| 1777818730 | 28.33° C | 21% | 1009.5 hPa | 0 mm | - | - | - |
| 1777816930 | 27.78° C | 21% | 1009.7 hPa | 0 mm | - | - | - |
| 1777815131 | 26.67° C | 22% | 1010 hPa | 0 mm | - | - | - |
| 1777811536 | 25.56° C | 31% | 1010.7 hPa | 0 mm | - | - | - |
| 1777809730 | 27.22° C | 32% | 1010.9 hPa | 0 mm | - | - | - |
| 1777806130 | 25.56° C | 35% | 1011.3 hPa | 0 mm | - | - | - |
| 1777804332 | 25.56° C | 38% | 1011.7 hPa | 0 mm | - | - | - |
| 1777802532 | 24.44° C | 40% | 1012 hPa | 0 mm | - | - | - |
| 1777800731 | 24.44° C | 40% | 1012.3 hPa | 0 mm | - | - | - |
| 1777798930 | 22.78° C | 41% | 1012.6 hPa | 0 mm | - | - | - |
| 1777797132 | 20.56° C | 50% | 1012.8 hPa | 0 mm | - | - | - |
| 1777795332 | 17.78° C | 58% | 1012.9 hPa | 0 mm | - | - | - |
| 1777793531 | 15.56° C | 64% | 1012.9 hPa | 0 mm | - | - | - |
| 1777791731 | 13.33° C | 70% | 1013 hPa | 0 mm | - | - | - |
| 1777789931 | 11.67° C | 80% | 1012.9 hPa | 0 mm | - | - | - |
| 1777788131 | 9.44° C | 84% | 1013 hPa | 0 mm | - | - | - |
| 1777786331 | 7.78° C | 83% | 1012.9 hPa | 0 mm | - | - | - |
* Rain since midnight (hover to see other rain measurements)
** Current wind speed in m/s (hover to see current wind gust speed)